INFORMACIÓN METAR y TAF
METAR FOR LEVC
ADDS - METARS form results

(1850 UTC 28 January 2020)
Data provider http://aviationweather.gov/metar/data/
 
METAR text: LEVC 281830Z 24007KT 9999 FEW020 16/10 Q1021 NOSIG
Conditions at: LEVC (VALENCIA (CIV/MI, ES) observed 1830 UTC 28 January 2020
Temperature: 16.0°C (61°F)
Dewpoint: 10.0°C (50°F) [RH = 68%]
Pressure (altimeter): 30.15 inches Hg (1021.0 mb)
Winds: from the WSW (240 degrees) at 8 MPH (7 knots; 3.6 m/s)
Visibility: 6 or more miles (10+ km)
Ceiling: at least 12,000 feet AGL
Clouds: few clouds at 2000 feet AGL
Weather: no significant weather observed at this time

METAR text: LEVC 281800Z 26011KT 9999 FEW020 16/10 Q1021 NOSIG
Conditions at: LEVC (VALENCIA (CIV/MI, ES) observed 1800 UTC 28 January 2020
Temperature: 16.0°C (61°F)
Dewpoint: 10.0°C (50°F) [RH = 68%]
Pressure (altimeter): 30.15 inches Hg (1021.0 mb)
Winds: from the W (260 degrees) at 13 MPH (11 knots; 5.7 m/s)
Visibility: 6 or more miles (10+ km)
Ceiling: at least 12,000 feet AGL
Clouds: few clouds at 2000 feet AGL
Weather: no significant weather observed at this time

Forecast for: LEVC (VALENCIA (CIV/MI, ES)
Text: TAF LEVC 281700Z 2818/2918 25007KT 9999 FEW020 TX21/2912Z TN11/2906Z
Forecast period: 1800 UTC 28 January 2020 to 1800 UTC 29 January 2020
Forecast type: FROM: standard forecast or significant change
Winds: from the WSW (250 degrees) at 8 MPH (7 knots; 3.6 m/s)
Visibility: 6 or more miles 10+ km)
Ceiling: at least 12,000 feet AGL
Clouds: few clouds at 2000 feet AGL
Weather: no significant weather forecast for this period

 MAPA DE AEROPUERTO

 INFORMACIÓN DE PISTA
Pista 04 Longitud 5394 ft Ancho 148 ft
Elevación 205 ft Umbral desplazado 0 ft Rumbo de pista 38
Pista 22 Longitud 5394 ft Ancho 148 ft
Elevación 188 ft Umbral desplazado 0 ft Rumbo de pista 218
Pista 12 Longitud 8858 ft Ancho 148 ft
Elevación 225 ft Umbral desplazado 0 ft Rumbo de pista 116
Pista 30 Longitud 8858 ft Ancho 148 ft
Elevación 172 ft Umbral desplazado 0 ft Rumbo de pista 296

 FRECUANCIAS DEL AEROPUERTO
Tipo APP Nombre APP Frecuencia 120.1 MHZ
Tipo ATIS Nombre ATIS Frecuencia 121.075 MHZ
Tipo GND Nombre GND Frecuencia 121.7 MHZ
Tipo TWR Nombre TWR Frecuencia 118.55 MHZ

 RADIO AYUDAS DEL AEROPUERTO
Tipo NDB Nombre Valencia Frecuencia 400 KHZ
Tipo NDB Nombre Valencia Frecuencia 340 KHZ
Tipo NDB Nombre Sagunto Frecuencia 356 KHZ
Tipo VOR-DME Nombre Valencia Frecuencia 116100 KHZ



Powered by Virtual Airlines Manager [v2.6.2]